sensor_id;sensor_type;location;lat;lon;timestamp;pressure;altitude;pressure_sealevel;temperature;humidity
34297;BME280;20564;42.902;25.336;2023-07-29T00:00:49;97053.66;;;14.22;97.06
34297;BME280;20564;42.902;25.336;2023-07-29T00:03:16;97049.56;;;14.19;97.06
34297;BME280;20564;42.902;25.336;2023-07-29T00:05:43;97046.41;;;14.16;97.12
34297;BME280;20564;42.902;25.336;2023-07-29T00:08:13;97052.53;;;14.08;97.66
34297;BME280;20564;42.902;25.336;2023-07-29T00:10:43;97046.06;;;14.03;97.90
34297;BME280;20564;42.902;25.336;2023-07-29T00:13:10;97043.25;;;14.12;97.67
34297;BME280;20564;42.902;25.336;2023-07-29T00:15:40;97036.97;;;14.05;98.21
34297;BME280;20564;42.902;25.336;2023-07-29T00:18:07;97040.63;;;14.04;97.84
34297;BME280;20564;42.902;25.336;2023-07-29T00:20:34;97036.81;;;13.98;97.76
34297;BME280;20564;42.902;25.336;2023-07-29T00:23:01;97028.06;;;13.90;98.32
34297;BME280;20564;42.902;25.336;2023-07-29T00:25:29;97025.56;;;13.80;99.02
34297;BME280;20564;42.902;25.336;2023-07-29T00:27:56;97025.06;;;13.77;99.36
34297;BME280;20564;42.902;25.336;2023-07-29T00:30:24;97028.38;;;13.79;99.19
34297;BME280;20564;42.902;25.336;2023-07-29T00:32:51;97027.69;;;13.77;99.72
34297;BME280;20564;42.902;25.336;2023-07-29T00:35:18;97017.44;;;13.73;99.64
34297;BME280;20564;42.902;25.336;2023-07-29T00:37:45;97008.88;;;13.71;99.88
34297;BME280;20564;42.902;25.336;2023-07-29T00:40:19;97015.78;;;13.64;99.00
34297;BME280;20564;42.902;25.336;2023-07-29T00:42:47;97011.66;;;13.62;99.80
34297;BME280;20564;42.902;25.336;2023-07-29T00:45:14;97008.50;;;13.58;99.96
34297;BME280;20564;42.902;25.336;2023-07-29T00:47:42;97007.88;;;13.72;99.63
34297;BME280;20564;42.902;25.336;2023-07-29T00:50:09;97002.72;;;13.71;98.96
34297;BME280;20564;42.902;25.336;2023-07-29T00:52:38;97008.19;;;13.61;99.43
34297;BME280;20564;42.902;25.336;2023-07-29T00:55:05;97011.47;;;13.63;99.82
34297;BME280;20564;42.902;25.336;2023-07-29T00:57:33;97002.91;;;13.61;99.29
34297;BME280;20564;42.902;25.336;2023-07-29T01:00:02;97014.78;;;13.65;99.91
34297;BME280;20564;42.902;25.336;2023-07-29T01:02:30;97013.47;;;13.61;99.73
34297;BME280;20564;42.902;25.336;2023-07-29T01:05:00;97015.13;;;13.62;99.96
34297;BME280;20564;42.902;25.336;2023-07-29T01:12:55;97007.19;;;13.54;99.99
34297;BME280;20564;42.902;25.336;2023-07-29T01:18:22;97004.53;;;13.46;100.00
34297;BME280;20564;42.902;25.336;2023-07-29T01:20:53;97001.22;;;13.44;100.00
34297;BME280;20564;42.902;25.336;2023-07-29T01:23:30;97003.19;;;13.42;100.00
34297;BME280;20564;42.902;25.336;2023-07-29T01:25:57;97010.13;;;13.35;100.00
34297;BME280;20564;42.902;25.336;2023-07-29T01:28:25;97010.13;;;13.35;100.00
34297;BME280;20564;42.902;25.336;2023-07-29T01:31:01;97019.53;;;13.29;100.00
34297;BME280;20564;42.902;25.336;2023-07-29T01:33:35;97023.81;;;13.30;100.00
34297;BME280;20564;42.902;25.336;2023-07-29T01:36:26;97026.78;;;13.27;100.00
34297;BME280;20564;42.902;25.336;2023-07-29T01:39:02;97028.22;;;13.21;100.00
34297;BME280;20564;42.902;25.336;2023-07-29T01:41:29;97031.00;;;13.20;100.00
34297;BME280;20564;42.902;25.336;2023-07-29T01:43:57;97033.00;;;13.18;100.00
34297;BME280;20564;42.902;25.336;2023-07-29T01:46:25;97035.47;;;13.19;100.00
34297;BME280;20564;42.902;25.336;2023-07-29T01:48:52;97038.78;;;13.21;100.00
34297;BME280;20564;42.902;25.336;2023-07-29T01:51:19;97040.63;;;13.21;100.00
34297;BME280;20564;42.902;25.336;2023-07-29T01:53:47;97027.41;;;13.21;100.00
34297;BME280;20564;42.902;25.336;2023-07-29T01:56:14;97034.19;;;13.23;100.00
34297;BME280;20564;42.902;25.336;2023-07-29T01:58:41;97034.00;;;13.17;100.00
34297;BME280;20564;42.902;25.336;2023-07-29T02:01:08;97036.13;;;13.13;100.00
34297;BME280;20564;42.902;25.336;2023-07-29T02:03:34;97027.84;;;13.08;100.00
34297;BME280;20564;42.902;25.336;2023-07-29T02:06:01;97032.47;;;13.06;100.00
34297;BME280;20564;42.902;25.336;2023-07-29T02:08:28;97036.28;;;13.12;100.00
34297;BME280;20564;42.902;25.336;2023-07-29T02:10:55;97034.13;;;13.07;100.00
34297;BME280;20564;42.902;25.336;2023-07-29T02:13:23;97045.03;;;13.12;100.00
34297;BME280;20564;42.902;25.336;2023-07-29T02:15:50;97053.94;;;13.03;100.00
34297;BME280;20564;42.902;25.336;2023-07-29T02:18:18;97047.97;;;13.01;100.00
34297;BME280;20564;42.902;25.336;2023-07-29T02:20:45;97047.44;;;12.97;100.00
34297;BME280;20564;42.902;25.336;2023-07-29T02:23:16;97056.69;;;12.93;100.00
34297;BME280;20564;42.902;25.336;2023-07-29T02:25:45;97057.19;;;12.97;100.00
34297;BME280;20564;42.902;25.336;2023-07-29T02:28:13;97062.16;;;13.00;100.00
34297;BME280;20564;42.902;25.336;2023-07-29T02:30:41;97058.00;;;12.97;100.00
34297;BME280;20564;42.902;25.336;2023-07-29T02:33:10;97051.41;;;12.93;100.00
34297;BME280;20564;42.902;25.336;2023-07-29T02:35:37;97061.13;;;12.93;100.00
34297;BME280;20564;42.902;25.336;2023-07-29T02:38:04;97050.91;;;12.98;100.00
34297;BME280;20564;42.902;25.336;2023-07-29T02:40:31;97054.22;;;13.00;100.00
34297;BME280;20564;42.902;25.336;2023-07-29T02:42:58;97052.09;;;13.03;100.00
34297;BME280;20564;42.902;25.336;2023-07-29T02:45:25;97054.53;;;12.97;100.00
34297;BME280;20564;42.902;25.336;2023-07-29T02:47:52;97059.50;;;12.92;100.00
34297;BME280;20564;42.902;25.336;2023-07-29T02:50:20;97053.19;;;12.85;100.00
34297;BME280;20564;42.902;25.336;2023-07-29T02:52:47;97061.09;;;12.85;100.00
34297;BME280;20564;42.902;25.336;2023-07-29T02:55:17;97054.19;;;12.84;100.00
34297;BME280;20564;42.902;25.336;2023-07-29T02:57:44;97048.22;;;12.82;100.00
34297;BME280;20564;42.902;25.336;2023-07-29T03:00:11;97050.84;;;12.82;100.00
34297;BME280;20564;42.902;25.336;2023-07-29T03:02:38;97047.91;;;12.85;100.00
34297;BME280;20564;42.902;25.336;2023-07-29T03:05:06;97055.66;;;12.86;100.00
34297;BME280;20564;42.902;25.336;2023-07-29T03:07:33;97065.41;;;12.86;100.00
34297;BME280;20564;42.902;25.336;2023-07-29T03:10:00;97050.69;;;12.83;100.00
34297;BME280;20564;42.902;25.336;2023-07-29T03:12:27;97056.75;;;12.75;100.00
34297;BME280;20564;42.902;25.336;2023-07-29T03:14:54;97059.38;;;12.75;100.00
34297;BME280;20564;42.902;25.336;2023-07-29T03:17:21;97054.09;;;12.75;100.00
34297;BME280;20564;42.902;25.336;2023-07-29T03:19:48;97059.38;;;12.75;100.00
34297;BME280;20564;42.902;25.336;2023-07-29T03:22:14;97052.47;;;12.74;100.00
34297;BME280;20564;42.902;25.336;2023-07-29T03:24:42;97065.88;;;12.81;100.00
34297;BME280;20564;42.902;25.336;2023-07-29T03:27:09;97062.09;;;12.84;100.00
34297;BME280;20564;42.902;25.336;2023-07-29T03:29:36;97060.41;;;12.83;100.00
34297;BME280;20564;42.902;25.336;2023-07-29T03:32:03;97057.94;;;12.81;100.00
34297;BME280;20564;42.902;25.336;2023-07-29T03:34:30;97056.16;;;12.90;100.00
34297;BME280;20564;42.902;25.336;2023-07-29T03:36:58;97061.75;;;12.87;100.00
34297;BME280;20564;42.902;25.336;2023-07-29T03:39:25;97064.56;;;12.85;100.00
34297;BME280;20564;42.902;25.336;2023-07-29T03:41:52;97060.72;;;12.79;100.00
34297;BME280;20564;42.902;25.336;2023-07-29T03:44:19;97073.84;;;12.89;100.00
34297;BME280;20564;42.902;25.336;2023-07-29T03:46:46;97065.09;;;12.89;100.00
34297;BME280;20564;42.902;25.336;2023-07-29T03:49:13;97061.81;;;12.95;100.00
34297;BME280;20564;42.902;25.336;2023-07-29T03:51:40;97069.09;;;13.01;100.00
34297;BME280;20564;42.902;25.336;2023-07-29T03:54:07;97074.25;;;13.02;100.00
34297;BME280;20564;42.902;25.336;2023-07-29T03:56:34;97074.25;;;13.11;100.00
34297;BME280;20564;42.902;25.336;2023-07-29T03:59:06;97077.25;;;13.16;100.00
34297;BME280;20564;42.902;25.336;2023-07-29T04:01:33;97085.09;;;13.25;100.00
34297;BME280;20564;42.902;25.336;2023-07-29T04:04:00;97091.06;;;13.27;100.00
34297;BME280;20564;42.902;25.336;2023-07-29T04:06:27;97083.50;;;13.41;100.00
34297;BME280;20564;42.902;25.336;2023-07-29T04:08:57;97082.03;;;13.46;100.00
34297;BME280;20564;42.902;25.336;2023-07-29T04:11:24;97083.19;;;13.52;100.00
34297;BME280;20564;42.902;25.336;2023-07-29T04:13:52;97086.84;;;13.59;100.00
34297;BME280;20564;42.902;25.336;2023-07-29T04:16:19;97076.63;;;13.72;100.00
34297;BME280;20564;42.902;25.336;2023-07-29T04:18:46;97078.28;;;13.73;100.00
34297;BME280;20564;42.902;25.336;2023-07-29T04:21:13;97072.34;;;13.88;100.00
34297;BME280;20564;42.902;25.336;2023-07-29T04:23:40;97083.63;;;14.14;100.00
34297;BME280;20564;42.902;25.336;2023-07-29T04:26:07;97080.66;;;14.50;100.00
34297;BME280;20564;42.902;25.336;2023-07-29T04:28:34;97074.28;;;14.84;99.90
34297;BME280;20564;42.902;25.336;2023-07-29T04:31:01;97073.19;;;15.26;97.98
34297;BME280;20564;42.902;25.336;2023-07-29T04:33:29;97064.97;;;15.75;94.31
34297;BME280;20564;42.902;25.336;2023-07-29T04:36:00;97065.94;;;16.28;91.63
34297;BME280;20564;42.902;25.336;2023-07-29T04:38:31;97064.16;;;16.73;88.35
34297;BME280;20564;42.902;25.336;2023-07-29T04:41:00;97058.72;;;17.19;84.95
34297;BME280;20564;42.902;25.336;2023-07-29T04:43:31;97057.41;;;17.66;82.84
34297;BME280;20564;42.902;25.336;2023-07-29T04:45:58;97054.81;;;18.08;80.21
34297;BME280;20564;42.902;25.336;2023-07-29T04:48:26;97057.88;;;18.55;79.04
34297;BME280;20564;42.902;25.336;2023-07-29T04:50:52;97052.63;;;18.96;76.69
34297;BME280;20564;42.902;25.336;2023-07-29T04:53:20;97055.06;;;19.33;74.38
34297;BME280;20564;42.902;25.336;2023-07-29T04:55:46;97056.47;;;19.70;72.70
34297;BME280;20564;42.902;25.336;2023-07-29T04:58:13;97058.22;;;20.04;68.94
34297;BME280;20564;42.902;25.336;2023-07-29T05:00:40;97059.88;;;20.38;69.45
34297;BME280;20564;42.902;25.336;2023-07-29T05:03:07;97061.94;;;20.76;68.20
34297;BME280;20564;42.902;25.336;2023-07-29T05:05:34;97059.81;;;21.11;66.26
34297;BME280;20564;42.902;25.336;2023-07-29T05:08:01;97052.13;;;21.35;61.88
34297;BME280;20564;42.902;25.336;2023-07-29T05:10:28;97052.66;;;21.63;59.57
34297;BME280;20564;42.902;25.336;2023-07-29T05:12:58;97057.03;;;21.89;58.79
34297;BME280;20564;42.902;25.336;2023-07-29T05:15:26;97051.56;;;22.16;59.12
34297;BME280;20564;42.902;25.336;2023-07-29T05:17:54;97076.06;;;22.45;59.24
34297;BME280;20564;42.902;25.336;2023-07-29T05:20:21;97072.59;;;22.69;54.98
34297;BME280;20564;42.902;25.336;2023-07-29T05:22:49;97073.19;;;22.96;55.62
34297;BME280;20564;42.902;25.336;2023-07-29T05:25:17;97067.56;;;23.23;54.86
34297;BME280;20564;42.902;25.336;2023-07-29T05:27:45;97078.81;;;23.50;54.04
34297;BME280;20564;42.902;25.336;2023-07-29T05:30:15;97074.84;;;23.71;52.85
34297;BME280;20564;42.902;25.336;2023-07-29T05:32:43;97072.06;;;23.96;52.95
34297;BME280;20564;42.902;25.336;2023-07-29T05:35:16;97080.06;;;24.14;54.36
34297;BME280;20564;42.902;25.336;2023-07-29T05:37:43;97082.22;;;24.36;51.33
34297;BME280;20564;42.902;25.336;2023-07-29T05:40:33;97084.28;;;24.64;50.58
34297;BME280;20564;42.902;25.336;2023-07-29T05:43:01;97087.69;;;24.83;49.31
34297;BME280;20564;42.902;25.336;2023-07-29T05:45:30;97088.38;;;24.90;46.35
34297;BME280;20564;42.902;25.336;2023-07-29T05:48:08;97088.06;;;25.10;46.74
34297;BME280;20564;42.902;25.336;2023-07-29T05:50:35;97088.44;;;25.13;44.82
34297;BME280;20564;42.902;25.336;2023-07-29T05:53:03;97084.44;;;25.28;46.24
34297;BME280;20564;42.902;25.336;2023-07-29T05:55:39;97083.31;;;25.52;46.88
34297;BME280;20564;42.902;25.336;2023-07-29T05:58:10;97082.97;;;25.60;45.96
34297;BME280;20564;42.902;25.336;2023-07-29T06:00:37;97079.63;;;25.70;46.23
34297;BME280;20564;42.902;25.336;2023-07-29T06:03:05;97074.25;;;25.82;45.18
34297;BME280;20564;42.902;25.336;2023-07-29T06:05:33;97074.41;;;26.04;46.33
34297;BME280;20564;42.902;25.336;2023-07-29T06:08:00;97068.28;;;26.25;45.37
34297;BME280;20564;42.902;25.336;2023-07-29T06:10:27;97071.22;;;26.52;47.03
34297;BME280;20564;42.902;25.336;2023-07-29T06:12:54;97058.56;;;26.69;44.80
34297;BME280;20564;42.902;25.336;2023-07-29T06:15:29;97058.84;;;26.90;42.20
34297;BME280;20564;42.902;25.336;2023-07-29T06:17:57;97060.31;;;27.14;41.94
34297;BME280;20564;42.902;25.336;2023-07-29T06:20:25;97048.13;;;27.34;41.82
34297;BME280;20564;42.902;25.336;2023-07-29T06:22:53;97044.50;;;27.45;42.86
34297;BME280;20564;42.902;25.336;2023-07-29T06:25:21;97043.16;;;27.70;42.59
34297;BME280;20564;42.902;25.336;2023-07-29T06:27:49;97044.38;;;27.79;41.64
34297;BME280;20564;42.902;25.336;2023-07-29T06:30:37;97034.38;;;28.06;42.02
34297;BME280;20564;42.902;25.336;2023-07-29T06:33:11;97034.50;;;28.17;41.73
34297;BME280;20564;42.902;25.336;2023-07-29T06:35:39;97040.06;;;28.37;41.87
34297;BME280;20564;42.902;25.336;2023-07-29T06:38:07;97038.56;;;28.46;42.23
34297;BME280;20564;42.902;25.336;2023-07-29T06:40:37;97029.53;;;28.68;41.94
34297;BME280;20564;42.902;25.336;2023-07-29T06:43:07;97031.94;;;29.01;40.05
34297;BME280;20564;42.902;25.336;2023-07-29T06:45:37;97035.88;;;29.26;38.79
34297;BME280;20564;42.902;25.336;2023-07-29T06:48:04;97030.75;;;29.35;39.94
34297;BME280;20564;42.902;25.336;2023-07-29T06:50:31;97023.59;;;29.76;41.28
34297;BME280;20564;42.902;25.336;2023-07-29T06:52:58;97025.09;;;30.24;39.27
34297;BME280;20564;42.902;25.336;2023-07-29T06:55:25;97018.28;;;30.63;38.27
34297;BME280;20564;42.902;25.336;2023-07-29T06:57:58;97024.53;;;30.89;38.67
34297;BME280;20564;42.902;25.336;2023-07-29T07:00:32;97017.72;;;31.02;35.64
34297;BME280;20564;42.902;25.336;2023-07-29T07:03:02;97017.66;;;31.22;36.53
34297;BME280;20564;42.902;25.336;2023-07-29T07:05:30;97009.41;;;31.53;33.62
34297;BME280;20564;42.902;25.336;2023-07-29T07:08:03;97020.47;;;31.72;32.99
34297;BME280;20564;42.902;25.336;2023-07-29T07:10:31;97016.06;;;31.86;30.92
34297;BME280;20564;42.902;25.336;2023-07-29T07:13:03;97017.84;;;32.06;31.07
34297;BME280;20564;42.902;25.336;2023-07-29T07:15:31;97009.84;;;32.20;30.21
34297;BME280;20564;42.902;25.336;2023-07-29T07:18:11;97006.72;;;32.36;29.21
34297;BME280;20564;42.902;25.336;2023-07-29T07:20:47;97002.56;;;32.49;28.13
34297;BME280;20564;42.902;25.336;2023-07-29T07:23:16;97006.19;;;32.34;29.19
34297;BME280;20564;42.902;25.336;2023-07-29T07:25:44;97004.78;;;32.42;29.22
34297;BME280;20564;42.902;25.336;2023-07-29T07:28:17;97013.13;;;32.56;29.94
34297;BME280;20564;42.902;25.336;2023-07-29T07:30:47;97005.94;;;32.65;29.55
34297;BME280;20564;42.902;25.336;2023-07-29T07:33:29;96996.56;;;32.76;29.53
34297;BME280;20564;42.902;25.336;2023-07-29T07:36:02;96997.28;;;32.58;30.20
34297;BME280;20564;42.902;25.336;2023-07-29T07:38:30;96997.75;;;32.70;28.87
34297;BME280;20564;42.902;25.336;2023-07-29T07:41:00;97007.13;;;32.59;32.10
34297;BME280;20564;42.902;25.336;2023-07-29T07:43:31;96997.84;;;32.60;28.78
34297;BME280;20564;42.902;25.336;2023-07-29T07:46:03;97001.03;;;32.67;30.36
34297;BME280;20564;42.902;25.336;2023-07-29T07:48:39;97004.06;;;32.95;30.58
34297;BME280;20564;42.902;25.336;2023-07-29T07:51:16;96999.59;;;32.75;28.07
34297;BME280;20564;42.902;25.336;2023-07-29T07:53:43;97002.72;;;32.87;29.13
34297;BME280;20564;42.902;25.336;2023-07-29T07:56:15;97003.25;;;33.18;29.33
34297;BME280;20564;42.902;25.336;2023-07-29T07:58:43;97006.75;;;33.48;30.28
34297;BME280;20564;42.902;25.336;2023-07-29T08:01:11;97000.66;;;33.75;27.55
34297;BME280;20564;42.902;25.336;2023-07-29T08:03:38;96999.69;;;33.84;26.97
34297;BME280;20564;42.902;25.336;2023-07-29T08:06:05;96994.69;;;33.92;27.84
34297;BME280;20564;42.902;25.336;2023-07-29T08:08:36;96997.94;;;33.94;27.75
34297;BME280;20564;42.902;25.336;2023-07-29T08:11:12;97004.31;;;34.08;28.81
34297;BME280;20564;42.902;25.336;2023-07-29T08:13:42;96999.91;;;34.26;29.20
34297;BME280;20564;42.902;25.336;2023-07-29T08:16:12;96994.25;;;34.22;27.12
34297;BME280;20564;42.902;25.336;2023-07-29T08:18:43;96988.78;;;34.22;25.48
34297;BME280;20564;42.902;25.336;2023-07-29T08:21:15;96998.03;;;34.26;28.02
34297;BME280;20564;42.902;25.336;2023-07-29T08:23:41;96991.75;;;34.07;27.37
34297;BME280;20564;42.902;25.336;2023-07-29T08:26:09;96989.00;;;33.88;27.51
34297;BME280;20564;42.902;25.336;2023-07-29T08:28:37;96981.69;;;33.83;26.90
34297;BME280;20564;42.902;25.336;2023-07-29T08:31:06;96984.88;;;33.91;28.00
34297;BME280;20564;42.902;25.336;2023-07-29T08:33:34;96980.81;;;34.07;27.73
34297;BME280;20564;42.902;25.336;2023-07-29T08:36:04;96972.41;;;33.84;26.21
34297;BME280;20564;42.902;25.336;2023-07-29T08:38:36;96978.59;;;33.71;26.78
34297;BME280;20564;42.902;25.336;2023-07-29T08:41:37;96966.13;;;33.84;28.31
34297;BME280;20564;42.902;25.336;2023-07-29T08:44:12;96964.97;;;33.90;26.95
34297;BME280;20564;42.902;25.336;2023-07-29T08:46:46;96960.88;;;33.88;28.39
34297;BME280;20564;42.902;25.336;2023-07-29T08:49:15;96966.66;;;34.05;26.33
34297;BME280;20564;42.902;25.336;2023-07-29T08:51:48;96952.50;;;34.03;26.25
34297;BME280;20564;42.902;25.336;2023-07-29T08:54:18;96964.81;;;34.19;27.29
34297;BME280;20564;42.902;25.336;2023-07-29T08:56:48;96967.19;;;34.40;27.17
34297;BME280;20564;42.902;25.336;2023-07-29T08:59:18;96959.38;;;34.52;27.00
34297;BME280;20564;42.902;25.336;2023-07-29T09:01:49;96966.28;;;34.63;27.04
34297;BME280;20564;42.902;25.336;2023-07-29T09:04:22;96966.47;;;34.67;27.53
34297;BME280;20564;42.902;25.336;2023-07-29T09:06:54;96959.06;;;35.00;26.19
34297;BME280;20564;42.902;25.336;2023-07-29T09:09:22;96966.69;;;34.98;26.44
34297;BME280;20564;42.902;25.336;2023-07-29T09:11:50;96965.94;;;35.11;25.53
34297;BME280;20564;42.902;25.336;2023-07-29T09:14:17;96961.88;;;35.22;26.33
34297;BME280;20564;42.902;25.336;2023-07-29T09:16:44;96963.88;;;35.31;26.60
34297;BME280;20564;42.902;25.336;2023-07-29T09:19:11;96962.16;;;35.21;25.78
34297;BME280;20564;42.902;25.336;2023-07-29T09:21:39;96953.75;;;34.90;25.15
34297;BME280;20564;42.902;25.336;2023-07-29T09:24:09;96958.19;;;34.72;25.95
34297;BME280;20564;42.902;25.336;2023-07-29T09:26:36;96952.09;;;34.61;26.79
34297;BME280;20564;42.902;25.336;2023-07-29T09:29:03;96949.25;;;34.66;26.59
34297;BME280;20564;42.902;25.336;2023-07-29T09:31:31;96949.69;;;34.87;27.91
34297;BME280;20564;42.902;25.336;2023-07-29T09:34:04;96942.41;;;34.96;26.84
34297;BME280;20564;42.902;25.336;2023-07-29T09:36:33;96937.81;;;34.92;26.81
34297;BME280;20564;42.902;25.336;2023-07-29T09:39:01;96949.47;;;34.84;26.56
34297;BME280;20564;42.902;25.336;2023-07-29T09:41:31;96936.91;;;34.83;26.60
34297;BME280;20564;42.902;25.336;2023-07-29T09:44:00;96943.81;;;34.94;28.87
34297;BME280;20564;42.902;25.336;2023-07-29T09:46:37;96941.78;;;34.72;26.18
34297;BME280;20564;42.902;25.336;2023-07-29T09:49:07;96940.72;;;34.54;27.35
34297;BME280;20564;42.902;25.336;2023-07-29T09:51:38;96946.50;;;34.66;27.33
34297;BME280;20564;42.902;25.336;2023-07-29T09:54:07;96955.06;;;34.78;28.52
34297;BME280;20564;42.902;25.336;2023-07-29T09:56:39;96944.28;;;34.68;28.65
34297;BME280;20564;42.902;25.336;2023-07-29T09:59:09;96942.34;;;34.55;27.13
34297;BME280;20564;42.902;25.336;2023-07-29T10:01:37;96938.41;;;34.28;27.70
34297;BME280;20564;42.902;25.336;2023-07-29T10:04:05;96942.44;;;34.17;28.40
34297;BME280;20564;42.902;25.336;2023-07-29T10:06:37;96942.22;;;33.95;29.32
34297;BME280;20564;42.902;25.336;2023-07-29T10:09:06;96941.63;;;33.98;28.61
34297;BME280;20564;42.902;25.336;2023-07-29T10:11:34;96942.59;;;34.07;30.49
34297;BME280;20564;42.902;25.336;2023-07-29T10:14:03;96932.34;;;33.99;28.06
34297;BME280;20564;42.902;25.336;2023-07-29T10:16:45;96929.06;;;34.16;29.47
34297;BME280;20564;42.902;25.336;2023-07-29T10:19:13;96932.63;;;34.16;30.22
34297;BME280;20564;42.902;25.336;2023-07-29T10:21:48;96933.91;;;34.38;29.49
34297;BME280;20564;42.902;25.336;2023-07-29T10:24:24;96929.50;;;34.55;29.25
34297;BME280;20564;42.902;25.336;2023-07-29T10:27:01;96929.31;;;34.52;27.77
34297;BME280;20564;42.902;25.336;2023-07-29T10:29:32;96926.13;;;34.45;27.27
34297;BME280;20564;42.902;25.336;2023-07-29T10:32:02;96925.06;;;34.41;27.96
34297;BME280;20564;42.902;25.336;2023-07-29T10:34:33;96925.69;;;34.38;26.92
34297;BME280;20564;42.902;25.336;2023-07-29T10:37:07;96926.72;;;34.42;28.81
34297;BME280;20564;42.902;25.336;2023-07-29T10:39:52;96927.38;;;34.33;28.60
34297;BME280;20564;42.902;25.336;2023-07-29T10:42:20;96921.47;;;34.45;27.30
34297;BME280;20564;42.902;25.336;2023-07-29T10:44:53;96915.38;;;34.35;27.58
34297;BME280;20564;42.902;25.336;2023-07-29T10:47:25;96913.66;;;34.39;28.83
34297;BME280;20564;42.902;25.336;2023-07-29T10:49:59;96909.19;;;34.43;29.19
34297;BME280;20564;42.902;25.336;2023-07-29T10:52:37;96908.06;;;34.44;28.29
34297;BME280;20564;42.902;25.336;2023-07-29T10:55:26;96910.38;;;34.37;28.86
34297;BME280;20564;42.902;25.336;2023-07-29T10:58:35;96905.78;;;34.51;27.82
34297;BME280;20564;42.902;25.336;2023-07-29T11:01:22;96905.00;;;34.64;28.67
34297;BME280;20564;42.902;25.336;2023-07-29T11:04:28;96895.38;;;34.53;27.68
34297;BME280;20564;42.902;25.336;2023-07-29T11:17:52;96888.09;;;34.62;28.91
34297;BME280;20564;42.902;25.336;2023-07-29T11:20:33;96886.72;;;34.46;27.74
34297;BME280;20564;42.902;25.336;2023-07-29T11:23:01;96882.78;;;34.38;27.70
34297;BME280;20564;42.902;25.336;2023-07-29T11:25:30;96881.41;;;34.54;27.23
34297;BME280;20564;42.902;25.336;2023-07-29T11:28:07;96875.00;;;34.59;27.39
34297;BME280;20564;42.902;25.336;2023-07-29T11:30:41;96880.09;;;34.52;27.75
34297;BME280;20564;42.902;25.336;2023-07-29T11:33:09;96880.47;;;34.59;27.69
34297;BME280;20564;42.902;25.336;2023-07-29T11:35:41;96885.56;;;34.52;28.46
34297;BME280;20564;42.902;25.336;2023-07-29T11:38:15;96879.31;;;34.32;27.84
34297;BME280;20564;42.902;25.336;2023-07-29T11:41:03;96885.78;;;34.37;27.38
34297;BME280;20564;42.902;25.336;2023-07-29T11:43:36;96878.53;;;34.46;27.73
34297;BME280;20564;42.902;25.336;2023-07-29T11:46:05;96875.50;;;34.47;26.72
34297;BME280;20564;42.902;25.336;2023-07-29T11:48:33;96880.81;;;34.58;27.01
34297;BME280;20564;42.902;25.336;2023-07-29T11:51:09;96869.66;;;34.68;27.08
34297;BME280;20564;42.902;25.336;2023-07-29T11:53:41;96864.19;;;34.54;26.60
34297;BME280;20564;42.902;25.336;2023-07-29T11:56:08;96873.25;;;34.36;26.09
34297;BME280;20564;42.902;25.336;2023-07-29T11:58:35;96870.31;;;34.32;27.58
34297;BME280;20564;42.902;25.336;2023-07-29T12:01:03;96865.13;;;34.17;27.43
34297;BME280;20564;42.902;25.336;2023-07-29T12:03:30;96860.69;;;34.21;26.76
34297;BME280;20564;42.902;25.336;2023-07-29T12:05:57;96857.84;;;34.26;26.69
34297;BME280;20564;42.902;25.336;2023-07-29T12:08:24;96857.84;;;34.12;26.81
34297;BME280;20564;42.902;25.336;2023-07-29T12:10:51;96864.31;;;34.16;28.85
34297;BME280;20564;42.902;25.336;2023-07-29T12:13:18;96863.94;;;34.23;28.14
34297;BME280;20564;42.902;25.336;2023-07-29T12:15:44;96863.31;;;34.12;26.21
34297;BME280;20564;42.902;25.336;2023-07-29T12:18:11;96862.34;;;34.03;27.17
34297;BME280;20564;42.902;25.336;2023-07-29T12:20:38;96847.81;;;33.89;26.24
34297;BME280;20564;42.902;25.336;2023-07-29T12:23:05;96858.75;;;33.89;27.36
34297;BME280;20564;42.902;25.336;2023-07-29T12:25:34;96845.81;;;33.94;30.17
34297;BME280;20564;42.902;25.336;2023-07-29T12:28:08;96850.75;;;34.11;27.08
34297;BME280;20564;42.902;25.336;2023-07-29T12:30:41;96850.66;;;34.16;26.04
34297;BME280;20564;42.902;25.336;2023-07-29T12:33:08;96845.72;;;34.32;27.87
34297;BME280;20564;42.902;25.336;2023-07-29T12:35:38;96845.66;;;34.51;27.44
34297;BME280;20564;42.902;25.336;2023-07-29T12:38:05;96843.75;;;34.65;26.82
34297;BME280;20564;42.902;25.336;2023-07-29T12:40:38;96840.28;;;34.73;25.49
34297;BME280;20564;42.902;25.336;2023-07-29T12:43:06;96844.53;;;34.79;27.88
34297;BME280;20564;42.902;25.336;2023-07-29T12:45:36;96836.44;;;35.02;26.74
34297;BME280;20564;42.902;25.336;2023-07-29T12:48:06;96855.03;;;35.27;26.04
34297;BME280;20564;42.902;25.336;2023-07-29T12:50:33;96844.47;;;35.35;25.77
34297;BME280;20564;42.902;25.336;2023-07-29T12:52:59;96841.56;;;35.17;26.07
34297;BME280;20564;42.902;25.336;2023-07-29T12:55:26;96844.34;;;34.90;27.50
34297;BME280;20564;42.902;25.336;2023-07-29T12:57:53;96848.59;;;34.68;27.66
34297;BME280;20564;42.902;25.336;2023-07-29T13:00:20;96845.38;;;34.52;27.02
34297;BME280;20564;42.902;25.336;2023-07-29T13:02:47;96841.66;;;34.29;28.00
34297;BME280;20564;42.902;25.336;2023-07-29T13:05:14;96839.38;;;34.04;27.83
34297;BME280;20564;42.902;25.336;2023-07-29T13:07:42;96844.34;;;34.02;28.15
34297;BME280;20564;42.902;25.336;2023-07-29T13:10:10;96840.34;;;34.13;27.97
34297;BME280;20564;42.902;25.336;2023-07-29T13:12:37;96839.84;;;34.25;26.88
34297;BME280;20564;42.902;25.336;2023-07-29T13:15:04;96847.97;;;34.30;27.20
34297;BME280;20564;42.902;25.336;2023-07-29T13:17:33;96843.59;;;34.43;28.56
34297;BME280;20564;42.902;25.336;2023-07-29T13:20:00;96843.72;;;34.51;27.85